createdAt,value
2017-11-04T00:00:57.882Z,17.27
2017-11-04T00:03:25.724Z,19.75
2017-11-04T00:05:53.454Z,16.20
2017-11-04T00:08:21.953Z,17.12
2017-11-04T00:10:49.677Z,18.77
2017-11-04T00:13:18.239Z,19.30
2017-11-04T00:15:46.113Z,19.33
2017-11-04T00:18:13.845Z,17.42
2017-11-04T00:20:41.554Z,17.23
2017-11-04T00:23:09.269Z,17.45
2017-11-04T00:25:37.039Z,17.87
2017-11-04T00:28:04.831Z,18.35
2017-11-04T00:30:32.696Z,18.80
2017-11-04T00:33:00.568Z,18.50
2017-11-04T00:35:28.330Z,18.92
2017-11-04T00:37:56.055Z,18.42
2017-11-04T00:40:23.782Z,20.40
2017-11-04T00:42:51.506Z,20.58
2017-11-04T00:45:19.244Z,19.20
2017-11-04T00:47:46.965Z,17.85
2017-11-04T00:50:15.635Z,20.27
2017-11-04T00:52:43.502Z,20.50
2017-11-04T00:55:11.370Z,18.52
2017-11-04T00:57:39.237Z,21.05
2017-11-04T01:00:07.105Z,20.20
2017-11-04T01:02:34.818Z,20.05
2017-11-04T01:05:02.542Z,19.02
2017-11-04T01:07:30.273Z,20.17
2017-11-04T01:09:58.167Z,19.98
2017-11-04T01:12:26.034Z,19.40
2017-11-04T01:14:53.902Z,19.95
2017-11-04T01:17:21.769Z,17.85
2017-11-04T01:19:49.507Z,18.98
2017-11-04T01:22:17.402Z,18.95
2017-11-04T01:24:45.268Z,19.00
2017-11-04T01:27:12.990Z,19.00
2017-11-04T01:29:40.738Z,19.87
2017-11-04T01:32:09.260Z,19.02
2017-11-04T01:34:37.144Z,21.23
2017-11-04T01:37:05.013Z,21.50
2017-11-04T01:39:32.755Z,19.33
2017-11-04T01:42:00.514Z,16.12
2017-11-04T01:44:28.254Z,16.23
2017-11-04T01:46:56.755Z,16.67
2017-11-04T01:49:24.515Z,18.30
2017-11-04T01:51:52.246Z,17.05
2017-11-04T01:54:20.232Z,17.62
2017-11-04T01:56:48.738Z,18.95
2017-11-04T01:59:16.479Z,22.15
2017-11-04T02:01:44.993Z,18.75
2017-11-04T02:04:12.883Z,17.98
2017-11-04T02:06:40.852Z,18.30
2017-11-04T02:09:08.726Z,17.05
2017-11-04T02:11:36.588Z,19.30
2017-11-04T02:14:04.456Z,18.60
2017-11-04T02:16:32.322Z,17.65
2017-11-04T02:19:00.063Z,17.70
2017-11-04T02:21:27.847Z,20.30
2017-11-04T02:23:55.577Z,20.05
2017-11-04T02:26:23.305Z,19.80
2017-11-04T02:28:51.047Z,19.23
2017-11-04T02:31:18.800Z,21.55
2017-11-04T02:33:46.526Z,18.95
2017-11-04T02:36:14.266Z,20.60
2017-11-04T02:38:42.026Z,20.58
2017-11-04T02:41:09.753Z,20.62
2017-11-04T02:43:37.478Z,20.10
2017-11-04T02:46:05.956Z,22.65
2017-11-04T02:48:34.597Z,21.70
2017-11-04T02:51:02.468Z,21.67
2017-11-04T02:53:30.332Z,19.25
2017-11-04T02:55:58.056Z,19.45
2017-11-04T02:58:25.769Z,20.90
2017-11-04T03:00:53.526Z,21.40
2017-11-04T03:03:22.004Z,18.58
2017-11-04T03:05:49.873Z,17.23
2017-11-04T03:08:17.740Z,19.58
2017-11-04T03:10:45.609Z,21.27
2017-11-04T03:13:14.191Z,22.25
2017-11-04T03:15:42.059Z,19.80
2017-11-04T03:18:09.805Z,22.00
2017-11-04T03:20:37.585Z,21.27
2017-11-04T03:23:05.457Z,23.35
2017-11-04T03:25:33.426Z,20.73
2017-11-04T03:28:01.165Z,22.30
2017-11-04T03:30:28.935Z,21.37
2017-11-04T03:32:56.822Z,21.40
2017-11-04T03:35:24.694Z,18.92
2017-11-04T03:37:52.558Z,20.10
2017-11-04T03:40:20.292Z,19.90
2017-11-04T03:42:48.015Z,20.67
2017-11-04T03:45:15.741Z,22.10
2017-11-04T03:47:43.463Z,21.23
2017-11-04T03:50:11.223Z,21.65
2017-11-04T03:52:39.726Z,19.35
2017-11-04T03:55:07.451Z,19.95
2017-11-04T04:00:09.059Z,19.85
2017-11-04T04:02:36.780Z,19.45
2017-11-04T04:05:04.540Z,21.30
2017-11-04T04:07:32.266Z,21.62
2017-11-04T04:10:00.012Z,21.62
2017-11-04T04:12:27.733Z,21.62
2017-11-04T04:14:55.460Z,19.75
2017-11-04T04:17:23.187Z,19.23
2017-11-04T04:19:51.832Z,19.50
2017-11-04T04:22:19.702Z,20.30
2017-11-04T04:24:47.570Z,20.67
2017-11-04T04:27:15.436Z,21.48
2017-11-04T04:29:43.165Z,22.40
2017-11-04T04:32:10.902Z,21.12
2017-11-04T04:34:39.392Z,21.00
2017-11-04T04:37:07.925Z,20.50
2017-11-04T04:39:35.725Z,23.65
2017-11-04T04:42:04.261Z,20.52
2017-11-04T04:44:32.024Z,18.62
2017-11-04T04:46:59.800Z,23.40
2017-11-04T04:49:27.566Z,23.55
2017-11-04T04:51:55.294Z,24.10
2017-11-04T04:54:23.026Z,20.73
2017-11-04T04:56:50.762Z,21.80
2017-11-04T04:59:18.503Z,21.23
2017-11-04T05:01:46.395Z,22.87
2017-11-04T05:04:14.162Z,21.85
2017-11-04T05:06:41.880Z,21.62
2017-11-04T05:09:09.654Z,23.15
2017-11-04T05:11:37.375Z,23.38
2017-11-04T05:14:05.113Z,23.85
2017-11-04T05:16:32.839Z,27.40
2017-11-04T05:19:00.563Z,28.58
2017-11-04T05:21:28.278Z,28.42
2017-11-04T05:23:56.002Z,30.20
2017-11-04T05:26:24.510Z,29.35
2017-11-04T05:28:52.295Z,26.33
2017-11-04T05:31:21.833Z,26.73
2017-11-04T05:33:51.065Z,26.58
2017-11-04T05:36:21.572Z,24.30
2017-11-04T05:38:49.338Z,25.10
2017-11-04T05:41:17.357Z,24.87
2017-11-04T05:43:45.260Z,24.80
2017-11-04T05:46:13.128Z,23.65
2017-11-04T05:48:40.860Z,23.70
2017-11-04T05:51:08.605Z,25.37
2017-11-04T05:53:37.097Z,25.85
2017-11-04T05:56:06.951Z,24.52
2017-11-04T05:58:34.820Z,24.33
2017-11-04T06:01:02.687Z,23.35
2017-11-04T06:03:30.551Z,23.65
2017-11-04T06:05:58.374Z,23.05
2017-11-04T06:08:26.123Z,22.95
2017-11-04T06:10:54.627Z,23.33
2017-11-04T06:13:22.352Z,22.65
2017-11-04T06:15:50.197Z,25.90
2017-11-04T06:18:18.065Z,24.83
2017-11-04T06:20:46.035Z,21.87
2017-11-04T06:23:13.903Z,24.37
2017-11-04T06:25:41.770Z,23.95
2017-11-04T06:28:09.637Z,23.87
2017-11-04T06:30:37.504Z,23.42
2017-11-04T06:33:05.370Z,21.05
2017-11-04T06:35:33.239Z,20.65
2017-11-04T06:38:01.106Z,21.20
2017-11-04T06:40:28.972Z,22.40
2017-11-04T06:42:56.840Z,20.83
2017-11-04T06:45:24.707Z,21.27
2017-11-04T06:47:52.576Z,21.83
2017-11-04T06:50:20.442Z,21.00
2017-11-04T06:52:48.412Z,21.20
2017-11-04T06:55:16.281Z,22.05
2017-11-04T06:57:44.150Z,22.33
2017-11-04T07:00:12.013Z,21.40
2017-11-04T07:02:39.881Z,23.20
2017-11-04T07:05:07.749Z,26.10
2017-11-04T07:07:35.620Z,25.50
2017-11-04T07:10:03.587Z,23.80
2017-11-04T07:12:31.455Z,20.62
2017-11-04T07:14:59.332Z,20.60
2017-11-04T07:17:27.188Z,20.12
2017-11-04T07:19:55.055Z,21.12
2017-11-04T07:22:22.922Z,20.95
2017-11-04T07:24:50.789Z,21.92
2017-11-04T07:27:18.658Z,20.85
2017-11-04T07:29:46.524Z,20.42
2017-11-04T07:32:14.393Z,19.55
2017-11-04T07:34:42.259Z,20.37
2017-11-04T07:37:10.126Z,20.37
2017-11-04T07:39:37.998Z,19.90
2017-11-04T07:42:05.866Z,22.35
2017-11-04T07:44:33.729Z,20.17
2017-11-04T07:47:01.501Z,21.20
2017-11-04T07:49:29.363Z,19.60
2017-11-04T07:51:57.228Z,17.60
2017-11-04T07:54:25.099Z,20.17
2017-11-04T07:56:52.964Z,20.60
2017-11-04T07:59:20.831Z,19.92
2017-11-04T08:01:48.697Z,19.27
2017-11-04T08:04:16.564Z,20.02
2017-11-04T08:06:44.575Z,18.85
2017-11-04T08:09:13.323Z,19.77
2017-11-04T08:11:41.190Z,20.60
2017-11-04T08:14:09.262Z,20.90
2017-11-04T08:16:37.129Z,22.13
2017-11-04T08:19:05.100Z,20.60
2017-11-04T08:21:32.982Z,21.67
2017-11-04T08:24:00.834Z,21.25
2017-11-04T08:26:28.701Z,19.35
2017-11-04T08:28:56.671Z,22.05
2017-11-04T08:31:24.538Z,20.65
2017-11-04T08:33:53.226Z,21.12
2017-11-04T08:36:21.095Z,21.33
2017-11-04T08:38:48.962Z,21.05
2017-11-04T08:41:16.826Z,19.75
2017-11-04T08:43:44.694Z,20.10
2017-11-04T08:46:12.561Z,21.12
2017-11-04T08:48:40.429Z,22.33
2017-11-04T08:51:08.297Z,20.67
2017-11-04T08:53:36.096Z,21.85
2017-11-04T08:56:04.748Z,24.27
2017-11-04T08:58:32.616Z,22.85
2017-11-04T09:01:00.482Z,22.42
2017-11-04T09:03:28.349Z,23.60
2017-11-04T09:05:56.217Z,25.62
2017-11-04T09:08:24.084Z,24.92
2017-11-04T09:10:51.951Z,27.45
2017-11-04T09:13:19.818Z,29.60
2017-11-04T09:15:47.900Z,29.33
2017-11-04T09:18:15.759Z,31.67
2017-11-04T09:20:44.445Z,30.80
2017-11-04T09:23:12.311Z,31.10
2017-11-04T09:25:40.178Z,32.28
2017-11-04T09:28:08.046Z,30.35
2017-11-04T09:30:35.914Z,31.42
2017-11-04T09:33:03.783Z,33.05
2017-11-04T09:35:31.648Z,33.30
2017-11-04T09:37:59.517Z,32.17
2017-11-04T09:40:27.384Z,33.10
2017-11-04T09:42:55.250Z,36.28
2017-11-04T09:45:23.119Z,34.40
2017-11-04T09:47:51.026Z,34.70
2017-11-04T09:50:19.672Z,33.95
2017-11-04T09:52:47.538Z,35.33
2017-11-04T09:55:15.408Z,34.55
2017-11-04T09:57:43.273Z,34.22
2017-11-04T10:00:11.141Z,33.78
2017-11-04T10:02:39.009Z,33.38
2017-11-04T10:05:06.876Z,34.33
2017-11-04T10:07:34.742Z,33.17
2017-11-04T10:10:02.610Z,34.85
2017-11-04T10:12:30.478Z,35.03
2017-11-04T10:14:58.352Z,35.47
2017-11-04T10:17:27.031Z,36.42
2017-11-04T10:19:54.899Z,36.35
2017-11-04T10:22:22.766Z,38.63
2017-11-04T10:24:50.633Z,39.40
2017-11-04T10:27:18.500Z,41.20
2017-11-04T10:29:46.287Z,38.92
2017-11-04T10:32:14.162Z,38.72
2017-11-04T10:34:42.820Z,40.40
2017-11-04T10:37:10.686Z,40.67
2017-11-04T10:39:38.553Z,38.58
2017-11-04T10:42:06.523Z,40.40
2017-11-04T10:44:34.390Z,39.53
2017-11-04T10:47:02.258Z,44.30
2017-11-04T10:49:30.126Z,40.58
2017-11-04T10:51:58.094Z,40.75
2017-11-04T10:54:25.968Z,42.42
2017-11-04T10:56:53.834Z,42.50
2017-11-04T10:59:21.699Z,41.55
2017-11-04T11:01:49.698Z,42.78
2017-11-04T11:04:18.358Z,41.03
2017-11-04T11:06:46.225Z,42.22
2017-11-04T11:09:14.092Z,41.92
2017-11-04T11:11:42.263Z,42.17
2017-11-04T11:14:10.130Z,41.78
2017-11-04T11:16:37.996Z,40.92
2017-11-04T11:19:05.865Z,42.83
2017-11-04T11:21:33.731Z,42.70
2017-11-04T11:24:02.316Z,43.30
2017-11-04T11:26:30.186Z,43.85
2017-11-04T11:28:58.051Z,43.25
2017-11-04T11:31:25.917Z,41.10
2017-11-04T11:33:53.785Z,44.85
2017-11-04T11:36:21.653Z,44.67
2017-11-04T11:38:49.521Z,43.65
2017-11-04T11:41:17.386Z,41.05
2017-11-04T11:43:45.254Z,44.30
2017-11-04T11:46:13.123Z,42.72
2017-11-04T11:48:40.988Z,42.55
2017-11-04T11:51:08.856Z,45.00
2017-11-04T11:53:36.724Z,43.38
2017-11-04T11:56:04.591Z,41.42
2017-11-04T11:58:32.478Z,40.28
2017-11-04T12:01:01.043Z,41.90
2017-11-04T12:03:28.909Z,41.13
2017-11-04T12:05:56.776Z,40.22
2017-11-04T12:08:24.644Z,40.97
2017-11-04T12:10:52.512Z,38.58
2017-11-04T12:13:20.378Z,41.05
2017-11-04T12:15:48.247Z,38.38
2017-11-04T12:18:16.113Z,38.70
2017-11-04T12:20:43.980Z,40.70
2017-11-04T12:23:11.847Z,39.50
2017-11-04T12:25:39.715Z,39.80
2017-11-04T12:28:07.583Z,38.65
2017-11-04T12:30:35.450Z,37.70
2017-11-04T12:33:03.318Z,36.20
2017-11-04T12:35:31.184Z,36.25
2017-11-04T12:37:59.052Z,35.65
2017-11-04T12:40:26.919Z,34.15
2017-11-04T12:42:54.786Z,33.80
2017-11-04T12:45:22.654Z,32.13
2017-11-04T12:47:50.521Z,32.53
2017-11-04T12:50:18.400Z,31.98
2017-11-04T12:52:46.248Z,32.50
2017-11-04T12:55:14.123Z,31.60
2017-11-04T12:57:41.991Z,33.60
2017-11-04T13:00:09.857Z,32.25
2017-11-04T13:02:37.725Z,32.28
2017-11-04T13:05:05.592Z,30.90
2017-11-04T13:07:33.461Z,33.35
2017-11-04T13:10:01.327Z,33.92
2017-11-04T13:12:29.194Z,34.10
2017-11-04T13:14:57.061Z,34.38
2017-11-04T13:17:24.929Z,32.55
2017-11-04T13:19:52.796Z,33.60
2017-11-04T13:22:20.664Z,35.03
2017-11-04T13:24:48.530Z,34.45
2017-11-04T13:27:16.398Z,32.15
2017-11-04T13:29:44.264Z,34.00
2017-11-04T13:32:12.133Z,35.35
2017-11-04T13:34:39.999Z,33.53
2017-11-04T13:37:07.867Z,37.08
2017-11-04T13:39:35.735Z,35.85
2017-11-04T13:42:03.605Z,33.00
2017-11-04T13:44:31.469Z,35.17
2017-11-04T13:46:59.336Z,33.88
2017-11-04T13:49:27.211Z,33.92
2017-11-04T13:51:55.077Z,32.58
2017-11-04T13:54:23.040Z,32.58
2017-11-04T13:56:50.930Z,32.10
2017-11-04T13:59:18.775Z,32.20
2017-11-04T14:01:46.642Z,31.37
2017-11-04T14:04:14.509Z,32.13
2017-11-04T14:06:42.276Z,33.65
2017-11-04T14:09:10.142Z,32.42
2017-11-04T14:11:39.699Z,32.05
2017-11-04T14:14:08.550Z,33.13
2017-11-04T14:16:37.331Z,33.50
2017-11-04T14:19:12.600Z,32.20
2017-11-04T14:21:44.892Z,32.60
2017-11-04T14:24:14.234Z,32.50
2017-11-04T14:26:43.677Z,32.25
2017-11-04T14:29:12.538Z,33.72
2017-11-04T14:31:40.817Z,31.73
2017-11-04T14:34:08.784Z,32.25
2017-11-04T14:36:36.650Z,31.45
2017-11-04T14:39:04.519Z,32.95
2017-11-04T14:41:32.288Z,31.10
2017-11-04T14:44:00.151Z,32.95
2017-11-04T14:46:28.019Z,33.00
2017-11-04T14:48:55.885Z,30.65
2017-11-04T14:51:23.752Z,30.62
2017-11-04T14:53:51.619Z,29.70
2017-11-04T14:56:19.488Z,27.65
2017-11-04T14:58:47.354Z,27.58
2017-11-04T15:01:15.222Z,27.37
2017-11-04T15:03:43.089Z,26.42
2017-11-04T15:06:10.956Z,24.55
2017-11-04T15:08:38.830Z,24.55
2017-11-04T15:11:06.696Z,25.40
2017-11-04T15:13:35.377Z,24.63
2017-11-04T15:16:03.245Z,26.33
2017-11-04T15:18:31.112Z,24.20
2017-11-04T15:20:58.980Z,23.75
2017-11-04T15:23:26.846Z,26.77
2017-11-04T15:25:54.714Z,22.77
2017-11-04T15:28:22.581Z,23.73
2017-11-04T15:30:50.348Z,22.33
2017-11-04T15:33:18.213Z,26.27
2017-11-04T15:35:46.081Z,24.48
2017-11-04T15:38:13.948Z,23.60
2017-11-04T15:40:41.819Z,22.58
2017-11-04T15:43:09.683Z,24.63
2017-11-04T15:45:37.549Z,22.77
2017-11-04T15:48:05.417Z,21.15
2017-11-04T15:50:33.284Z,22.35
2017-11-04T15:53:01.152Z,20.00
2017-11-04T15:55:29.020Z,20.25
2017-11-04T15:57:56.886Z,20.60
2017-11-04T16:00:24.754Z,20.10
2017-11-04T16:02:52.716Z,20.02
2017-11-04T16:05:25.035Z,19.35
2017-11-04T16:07:58.391Z,18.50
2017-11-04T16:10:29.695Z,22.87
2017-11-04T16:13:02.973Z,21.00
2017-11-04T16:15:32.014Z,22.52
2017-11-04T16:18:00.408Z,24.20
2017-11-04T16:20:33.747Z,26.85
2017-11-04T16:23:06.979Z,25.98
2017-11-04T16:25:41.498Z,26.58
2017-11-04T16:28:15.789Z,24.85
2017-11-04T16:30:43.706Z,25.67
2017-11-04T16:33:11.572Z,25.15
2017-11-04T16:35:39.311Z,26.30
2017-11-04T16:38:07.063Z,27.45
2017-11-04T16:40:35.078Z,27.60
2017-11-04T16:43:02.808Z,26.23
2017-11-04T16:45:30.534Z,24.25
2017-11-04T16:47:59.186Z,24.55
2017-11-04T16:50:27.053Z,22.33
2017-11-04T16:52:54.921Z,23.02
2017-11-04T16:55:23.471Z,20.52
2017-11-04T16:57:51.199Z,21.27
2017-11-04T17:00:19.715Z,22.45
2017-11-04T17:02:47.438Z,23.90
2017-11-04T17:05:15.176Z,23.65
2017-11-04T17:07:47.017Z,27.50
2017-11-04T17:10:15.829Z,30.15
2017-11-04T17:12:43.697Z,30.05
2017-11-04T17:15:11.564Z,27.45
2017-11-04T17:17:40.526Z,26.55
2017-11-04T17:20:08.426Z,28.30
2017-11-04T17:22:36.600Z,25.67
2017-11-04T17:25:04.467Z,24.80
2017-11-04T17:27:32.336Z,27.73
2017-11-04T17:30:00.203Z,26.30
2017-11-04T17:32:28.075Z,25.48
2017-11-04T17:34:55.940Z,24.90
2017-11-04T17:37:23.805Z,25.08
2017-11-04T17:39:51.674Z,26.85
2017-11-04T17:42:19.543Z,26.23
2017-11-04T17:44:47.270Z,27.30
2017-11-04T17:47:15.006Z,23.92
2017-11-04T17:49:43.515Z,24.37
2017-11-04T17:52:11.246Z,25.77
2017-11-04T17:54:39.900Z,25.08
2017-11-04T17:57:07.766Z,29.60
2017-11-04T17:59:35.633Z,34.08
2017-11-04T18:02:03.500Z,35.45
2017-11-04T18:04:31.368Z,32.55
2017-11-04T18:06:59.338Z,29.75
2017-11-04T18:09:27.205Z,32.83
2017-11-04T18:11:55.072Z,32.67
2017-11-04T18:14:22.940Z,28.62
2017-11-04T18:16:50.808Z,26.80
2017-11-04T18:19:18.675Z,25.95
2017-11-04T18:21:46.541Z,25.92
2017-11-04T18:24:14.424Z,25.17
2017-11-04T18:26:42.276Z,29.58
2017-11-04T18:29:10.776Z,32.67
2017-11-04T18:31:38.559Z,36.03
2017-11-04T18:34:07.050Z,32.95
2017-11-04T18:36:35.563Z,34.35
2017-11-04T18:39:03.611Z,33.83
2017-11-04T18:41:31.346Z,31.02
2017-11-04T18:43:59.100Z,33.38
2017-11-04T18:46:26.957Z,32.05
2017-11-04T18:48:54.823Z,33.88
2017-11-04T18:51:22.588Z,31.60
2017-11-04T18:53:50.456Z,38.13
2017-11-04T18:56:18.322Z,38.22
2017-11-04T18:58:46.189Z,36.08
2017-11-04T19:01:14.057Z,36.25
2017-11-04T19:03:41.783Z,32.30
2017-11-04T19:06:09.526Z,33.13
2017-11-04T19:08:38.170Z,31.73
2017-11-04T19:11:06.038Z,29.67
2017-11-04T19:13:33.819Z,28.38
2017-11-04T19:16:01.572Z,27.80
2017-11-04T19:18:29.299Z,26.45
2017-11-04T19:20:57.022Z,26.70
2017-11-04T19:23:24.751Z,25.95
2017-11-04T19:25:52.740Z,27.87
2017-11-04T19:28:20.478Z,31.25
2017-11-04T19:30:48.246Z,32.88
2017-11-04T19:33:15.966Z,32.72
2017-11-04T19:35:44.460Z,31.80
2017-11-04T19:38:12.271Z,27.67
2017-11-04T19:40:40.145Z,26.92
2017-11-04T19:43:07.870Z,26.05
2017-11-04T19:45:35.593Z,25.95
2017-11-04T19:48:04.092Z,25.65
2017-11-04T19:50:32.596Z,26.08
2017-11-04T19:53:00.335Z,23.92
2017-11-04T19:55:28.818Z,25.40
2017-11-04T19:57:57.462Z,25.37
2017-11-04T20:00:25.199Z,24.63
2017-11-04T20:02:53.096Z,26.35
2017-11-04T20:05:20.962Z,26.75
2017-11-04T20:07:48.829Z,24.83
2017-11-04T20:10:16.696Z,27.67
2017-11-04T20:12:44.564Z,29.33
2017-11-04T20:15:12.431Z,30.23
2017-11-04T20:17:40.300Z,30.20
2017-11-04T20:20:08.165Z,32.40
2017-11-04T20:22:36.034Z,32.55
2017-11-04T20:25:03.901Z,28.10
2017-11-04T20:27:31.769Z,30.37
2017-11-04T20:29:59.635Z,28.52
2017-11-04T20:32:27.507Z,33.13
2017-11-04T20:34:55.231Z,28.23
2017-11-04T20:37:22.949Z,26.83
2017-11-04T20:39:50.797Z,26.27
2017-11-04T20:42:18.664Z,25.08
2017-11-04T20:44:46.433Z,25.27
2017-11-04T20:47:14.294Z,27.10
2017-11-04T20:49:42.165Z,26.15
2017-11-04T20:52:10.031Z,23.33
2017-11-04T20:54:37.907Z,23.65
2017-11-04T20:57:06.413Z,28.62
2017-11-04T20:59:34.907Z,26.90
2017-11-04T21:02:03.392Z,25.55
2017-11-04T21:04:31.118Z,24.60
2017-11-04T21:06:58.834Z,23.35
2017-11-04T21:09:26.562Z,23.27
2017-11-04T21:11:54.407Z,23.35
2017-11-04T21:14:23.090Z,23.95
2017-11-04T21:16:50.958Z,21.75
2017-11-04T21:19:18.710Z,22.77
2017-11-04T21:21:46.589Z,23.83
2017-11-04T21:24:14.458Z,25.73
2017-11-04T21:26:42.324Z,26.98
2017-11-04T21:29:10.192Z,25.77
2017-11-04T21:31:38.058Z,26.37
2017-11-04T21:34:05.927Z,23.42
2017-11-04T21:36:33.723Z,24.60
2017-11-04T21:39:02.388Z,23.73
2017-11-04T21:41:30.249Z,24.20
2017-11-04T21:43:58.114Z,25.42
2017-11-04T21:46:25.981Z,27.35
2017-11-04T21:48:53.865Z,29.83
2017-11-04T21:51:21.596Z,25.42
2017-11-04T21:53:49.326Z,24.45
2017-11-04T21:56:17.961Z,26.08
2017-11-04T21:58:45.827Z,31.30
2017-11-04T22:01:13.695Z,29.50
2017-11-04T22:03:41.564Z,27.10
2017-11-04T22:06:09.432Z,24.35
2017-11-04T22:08:37.316Z,22.98
2017-11-04T22:11:05.164Z,22.42
2017-11-04T22:13:33.032Z,21.35
2017-11-04T22:16:00.899Z,24.58
2017-11-04T22:18:28.618Z,22.70
2017-11-04T22:20:56.327Z,23.55
2017-11-04T22:23:24.194Z,25.30
2017-11-04T22:25:52.061Z,23.05
2017-11-04T22:28:19.929Z,23.42
2017-11-04T22:30:47.796Z,23.80
2017-11-04T22:33:15.664Z,24.70
2017-11-04T22:35:43.530Z,21.27
2017-11-04T22:38:11.397Z,19.62
2017-11-04T22:40:39.199Z,20.20
2017-11-04T22:43:07.850Z,21.65
2017-11-04T22:45:35.716Z,20.83
2017-11-04T22:48:03.586Z,22.10
2017-11-04T22:50:31.455Z,20.50
2017-11-04T22:52:59.319Z,21.48
2017-11-04T22:55:27.186Z,22.42
2017-11-04T22:57:55.055Z,24.10
2017-11-04T23:00:22.920Z,30.92
2017-11-04T23:02:50.787Z,26.23
2017-11-04T23:05:18.593Z,22.62
2017-11-04T23:07:47.082Z,21.45
2017-11-04T23:10:15.578Z,23.20
2017-11-04T23:12:43.382Z,24.02
2017-11-04T23:15:12.852Z,19.70
2017-11-04T23:17:40.584Z,20.62
2017-11-04T23:20:09.238Z,21.17
2017-11-04T23:22:36.976Z,20.70
2017-11-04T23:25:04.789Z,22.30
2017-11-04T23:27:32.518Z,23.27
2017-11-04T23:30:00.250Z,23.23
2017-11-04T23:32:27.967Z,25.10
2017-11-04T23:34:55.694Z,22.20
2017-11-04T23:37:23.593Z,21.15
2017-11-04T23:39:51.460Z,18.40
2017-11-04T23:42:19.326Z,17.48
2017-11-04T23:44:47.195Z,17.92
2017-11-04T23:47:15.062Z,18.23
2017-11-04T23:49:42.931Z,20.08
2017-11-04T23:52:10.666Z,18.95
2017-11-04T23:54:38.461Z,20.25
2017-11-04T23:57:06.325Z,18.17
2017-11-04T23:59:34.196Z,16.95
